createdAt,value
2022-09-11T00:02:36.602Z,97775.00
2022-09-11T00:06:38.285Z,97796.00
2022-09-11T00:10:42.056Z,97781.00
2022-09-11T00:14:43.044Z,97781.00
2022-09-11T00:18:44.337Z,97786.00
2022-09-11T00:22:47.878Z,97789.00
2022-09-11T00:26:48.910Z,97796.00
2022-09-11T00:30:59.596Z,97800.00
2022-09-11T00:35:00.504Z,97802.00
2022-09-11T00:39:01.590Z,97799.00
2022-09-11T00:43:03.203Z,97813.00
2022-09-11T00:47:08.986Z,97814.00
2022-09-11T00:51:10.546Z,97810.00
2022-09-11T00:55:15.144Z,97831.00
2022-09-11T00:59:17.288Z,97827.00
2022-09-11T01:03:18.738Z,97838.00
2022-09-11T01:07:21.208Z,97838.00
2022-09-11T01:11:34.548Z,97844.00
2022-09-11T01:15:42.568Z,97837.00
2022-09-11T01:20:05.613Z,97862.00
2022-09-11T01:24:22.334Z,97842.00
2022-09-11T01:28:27.546Z,97820.00
2022-09-11T01:32:38.177Z,97838.00
2022-09-11T01:36:43.750Z,97834.00
2022-09-11T01:41:03.947Z,97832.00
2022-09-11T01:45:06.437Z,97838.00
2022-09-11T01:49:34.692Z,97839.00
2022-09-11T01:53:39.539Z,97842.00
2022-09-11T01:57:50.382Z,97844.00
2022-09-11T02:01:55.295Z,97845.00
2022-09-11T02:06:03.019Z,97850.00
2022-09-11T02:10:11.341Z,97851.00
2022-09-11T02:14:29.027Z,97869.00
2022-09-11T02:18:48.885Z,97865.00
2022-09-11T02:22:49.932Z,97862.00
2022-09-11T02:27:00.505Z,97864.00
2022-09-11T02:31:02.746Z,97864.00
2022-09-11T02:35:06.429Z,97867.00
2022-09-11T02:39:44.709Z,97873.00
2022-09-11T02:43:49.535Z,97876.00
2022-09-11T02:48:12.256Z,97886.00
2022-09-11T02:52:20.144Z,97894.00
2022-09-11T02:56:36.941Z,97897.00
2022-09-11T03:00:39.516Z,97900.00
2022-09-11T03:04:41.342Z,97899.00
2022-09-11T03:08:42.252Z,97899.00
2022-09-11T03:12:43.194Z,97903.00
2022-09-11T03:16:44.639Z,97913.00
2022-09-11T03:20:49.368Z,97908.00
2022-09-11T03:24:50.234Z,97913.00
2022-09-11T03:28:52.882Z,97919.00
2022-09-11T03:32:53.918Z,97922.00
2022-09-11T03:36:54.942Z,97927.00
2022-09-11T03:40:55.899Z,97933.00
2022-09-11T03:44:56.748Z,97932.00
2022-09-11T03:48:58.956Z,97936.00
2022-09-11T03:53:00.196Z,97934.00
2022-09-11T03:57:01.144Z,97941.00
2022-09-11T04:01:08.116Z,97940.00
2022-09-11T04:05:09.945Z,97939.00
2022-09-11T04:09:10.971Z,97939.00
2022-09-11T04:13:12.003Z,97941.00
2022-09-11T04:17:12.863Z,97938.00
2022-09-11T04:21:16.003Z,97933.00
2022-09-11T04:25:16.927Z,97929.00
2022-09-11T04:29:18.039Z,97924.00
2022-09-11T04:33:18.929Z,97931.00
2022-09-11T04:37:20.285Z,97922.00
2022-09-11T04:41:21.655Z,97931.00
2022-09-11T04:45:23.206Z,97931.00
2022-09-11T04:49:24.324Z,97938.00
2022-09-11T04:53:25.364Z,97944.00
2022-09-11T04:57:26.242Z,97944.00
2022-09-11T05:01:30.098Z,97950.00
2022-09-11T05:05:31.128Z,97968.00
2022-09-11T05:09:31.959Z,97966.00
2022-09-11T05:13:36.407Z,97972.00
2022-09-11T05:17:36.420Z,97968.00
2022-09-11T05:21:37.665Z,97967.00
2022-09-11T05:25:38.599Z,97968.00
2022-09-11T05:29:39.455Z,97981.00
2022-09-11T05:33:40.653Z,97986.00
2022-09-11T05:37:41.756Z,97979.00
2022-09-11T05:41:42.613Z,97982.00
2022-09-11T05:49:52.689Z,97956.00
2022-09-11T05:53:55.443Z,97987.00
2022-09-11T05:57:56.398Z,97993.00
2022-09-11T06:01:57.354Z,97991.00
2022-09-11T06:06:00.860Z,98000.00
2022-09-11T06:10:03.448Z,98008.00
2022-09-11T06:14:04.519Z,98011.00
2022-09-11T06:18:06.801Z,98029.00
2022-09-11T06:22:07.829Z,98035.00
2022-09-11T06:26:11.122Z,98034.00
2022-09-11T06:30:12.615Z,98032.00
2022-09-11T06:34:13.635Z,98030.00
2022-09-11T06:38:14.564Z,98034.00
2022-09-11T06:42:15.730Z,98038.00
2022-09-11T06:46:19.483Z,98045.00
2022-09-11T06:50:20.441Z,98056.00
2022-09-11T06:54:21.280Z,98045.00
2022-09-11T06:58:22.153Z,98055.00
2022-09-11T07:02:24.783Z,98057.00
2022-09-11T07:06:28.809Z,98058.00
2022-09-11T07:10:29.735Z,98065.00
2022-09-11T07:14:32.208Z,98064.00
2022-09-11T07:18:38.768Z,98064.00
2022-09-11T07:22:39.915Z,98072.00
2022-09-11T07:26:41.100Z,98076.00
2022-09-11T07:30:42.042Z,98072.00
2022-09-11T07:34:43.396Z,98080.00
2022-09-11T07:38:46.436Z,98097.00
2022-09-11T07:42:48.861Z,98081.00
2022-09-11T07:46:50.708Z,98093.00
2022-09-11T07:51:01.569Z,98094.00
2022-09-11T07:55:03.566Z,98099.00
2022-09-11T07:59:07.469Z,98103.00
2022-09-11T08:03:08.770Z,98108.00
2022-09-11T08:07:10.021Z,98108.00
2022-09-11T08:11:14.310Z,98109.00
2022-09-11T08:15:15.585Z,98106.00
2022-09-11T08:19:18.658Z,98114.00
2022-09-11T08:23:22.546Z,98114.00
2022-09-11T08:27:23.625Z,98117.00
2022-09-11T08:31:26.373Z,98118.00
2022-09-11T08:35:27.373Z,98129.00
2022-09-11T08:39:28.228Z,98128.00
2022-09-11T08:43:33.035Z,98127.00
2022-09-11T08:47:36.608Z,98128.00
2022-09-11T08:51:39.810Z,98133.00
2022-09-11T08:55:44.116Z,98138.00
2022-09-11T08:59:49.904Z,98135.00
2022-09-11T09:04:06.917Z,98142.00
2022-09-11T09:08:27.043Z,98125.00
2022-09-11T09:12:47.371Z,98156.00
2022-09-11T09:17:13.870Z,98156.00
2022-09-11T09:21:47.717Z,98160.00
2022-09-11T09:25:51.586Z,98162.00
2022-09-11T09:29:57.164Z,98166.00
2022-09-11T09:34:01.966Z,98156.00
2022-09-11T09:38:13.379Z,98162.00
2022-09-11T09:42:35.135Z,98165.00
2022-09-11T09:46:50.171Z,98165.00
2022-09-11T09:50:48.576Z,98167.00
2022-09-11T09:55:02.357Z,98164.00
2022-09-11T09:59:10.036Z,98171.00
2022-09-11T10:03:20.420Z,98168.00
2022-09-11T10:07:22.598Z,98170.00
2022-09-11T10:11:27.517Z,98166.00
2022-09-11T10:15:28.968Z,98162.00
2022-09-11T10:19:40.141Z,98157.00
2022-09-11T10:23:48.125Z,98159.00
2022-09-11T10:27:53.049Z,98163.00
2022-09-11T10:32:00.596Z,98167.00
2022-09-11T10:36:04.926Z,98165.00
2022-09-11T10:40:09.956Z,98179.00
2022-09-11T10:44:15.514Z,98180.00
2022-09-11T10:48:21.023Z,98186.00
2022-09-11T10:52:23.121Z,98176.00
2022-09-11T10:56:26.133Z,98171.00
2022-09-11T11:00:29.844Z,98175.00
2022-09-11T11:04:32.260Z,98175.00
2022-09-11T11:08:53.800Z,98160.00
2022-09-11T11:13:03.874Z,98170.00
2022-09-11T11:17:23.322Z,98174.00
2022-09-11T11:21:43.899Z,98182.00
2022-09-11T11:26:21.265Z,98176.00
2022-09-11T11:30:44.235Z,98186.00
2022-09-11T11:34:53.602Z,98185.00
2022-09-11T11:39:15.223Z,98185.00
2022-09-11T11:43:20.622Z,98181.00
2022-09-11T11:47:25.608Z,98175.00
2022-09-11T11:51:30.303Z,98174.00
2022-09-11T11:55:51.992Z,98176.00
2022-09-11T12:00:02.786Z,98186.00
2022-09-11T12:04:10.738Z,98172.00
2022-09-11T12:08:14.003Z,98174.00
2022-09-11T12:12:18.682Z,98176.00
2022-09-11T12:16:23.368Z,98175.00
2022-09-11T12:20:31.073Z,98175.00
2022-09-11T12:24:51.788Z,98173.00
2022-09-11T12:29:15.582Z,98171.00
2022-09-11T12:33:44.186Z,98171.00
2022-09-11T12:38:10.796Z,98172.00
2022-09-11T12:42:27.364Z,98173.00
2022-09-11T12:46:33.981Z,98164.00
2022-09-11T12:50:35.640Z,98170.00
2022-09-11T12:54:40.639Z,98167.00
2022-09-11T12:58:44.406Z,98163.00
2022-09-11T13:02:49.391Z,98168.00
2022-09-11T13:06:54.344Z,98165.00
2022-09-11T13:11:32.911Z,98161.00
2022-09-11T13:15:40.675Z,98162.00
2022-09-11T13:19:41.934Z,98156.00
2022-09-11T13:23:43.635Z,98156.00
2022-09-11T13:27:53.447Z,98147.00
2022-09-11T13:31:56.964Z,98144.00
2022-09-11T13:36:01.817Z,98143.00
2022-09-11T13:40:07.342Z,98148.00
2022-09-11T13:44:11.829Z,98146.00
2022-09-11T13:48:19.677Z,98147.00
2022-09-11T13:52:23.907Z,98144.00
2022-09-11T13:56:50.750Z,98144.00
2022-09-11T14:00:54.296Z,98147.00
2022-09-11T14:05:17.376Z,98052.00
2022-09-11T14:09:21.032Z,98132.00
2022-09-11T14:13:27.190Z,98131.00
2022-09-11T14:17:28.986Z,98135.00
2022-09-11T14:21:35.866Z,98132.00
2022-09-11T14:25:36.841Z,98129.00
2022-09-11T14:29:37.701Z,98118.00
2022-09-11T14:33:38.813Z,98124.00
2022-09-11T14:37:44.981Z,98124.00
2022-09-11T14:41:45.930Z,98122.00
2022-09-11T14:45:47.869Z,98115.00
2022-09-11T14:49:51.715Z,98102.00
2022-09-11T14:53:53.061Z,98109.00
2022-09-11T14:57:54.269Z,98112.00
2022-09-11T15:01:57.832Z,98103.00
2022-09-11T15:05:58.938Z,98101.00
2022-09-11T15:09:59.928Z,98095.00
2022-09-11T15:14:20.402Z,98093.00
2022-09-11T15:18:05.497Z,98096.00
2022-09-11T15:22:07.551Z,98090.00
2022-09-11T15:26:10.840Z,98095.00
2022-09-11T15:30:12.327Z,98109.00
2022-09-11T15:34:14.904Z,98090.00
2022-09-11T15:38:16.094Z,98085.00
2022-09-11T15:42:17.934Z,98085.00
2022-09-11T15:46:20.756Z,98080.00
2022-09-11T15:50:24.025Z,98090.00
2022-09-11T15:54:26.692Z,98053.00
2022-09-11T15:58:27.682Z,98082.00
2022-09-11T16:02:28.902Z,98080.00
2022-09-11T16:06:32.871Z,98082.00
2022-09-11T16:10:37.230Z,98090.00
2022-09-11T16:14:38.329Z,98076.00
2022-09-11T16:18:39.519Z,98090.00
2022-09-11T16:22:41.579Z,98082.00
2022-09-11T16:26:43.699Z,98082.00
2022-09-11T16:30:49.504Z,98084.00
2022-09-11T16:34:49.828Z,98077.00
2022-09-11T16:38:51.035Z,98078.00
2022-09-11T16:42:53.603Z,98083.00
2022-09-11T16:46:55.243Z,98079.00
2022-09-11T16:50:57.888Z,98077.00
2022-09-11T16:54:59.550Z,98075.00
2022-09-11T16:59:01.505Z,98073.00
2022-09-11T17:03:03.185Z,98066.00
2022-09-11T17:07:04.681Z,98074.00
2022-09-11T17:11:11.350Z,98073.00
2022-09-11T17:15:12.446Z,98072.00
2022-09-11T17:19:14.210Z,98077.00
2022-09-11T17:23:16.084Z,98068.00
2022-09-11T17:27:17.466Z,98078.00
2022-09-11T17:31:19.524Z,98082.00
2022-09-11T17:35:20.940Z,98075.00
2022-09-11T17:39:22.499Z,98075.00
2022-09-11T17:43:24.061Z,98083.00
2022-09-11T17:47:30.589Z,98084.00
2022-09-11T17:51:31.946Z,98085.00
2022-09-11T17:55:32.995Z,98094.00
2022-09-11T17:59:36.033Z,98095.00
2022-09-11T18:03:37.611Z,98095.00
2022-09-11T18:07:39.002Z,98093.00
2022-09-11T18:11:42.428Z,98092.00
2022-09-11T18:15:43.709Z,98090.00
2022-09-11T18:19:46.702Z,98101.00
2022-09-11T18:23:49.653Z,98102.00
2022-09-11T18:27:50.829Z,98100.00
2022-09-11T18:31:53.947Z,98098.00
2022-09-11T18:35:55.293Z,98107.00
2022-09-11T18:39:57.418Z,98112.00
2022-09-11T18:44:00.315Z,98110.00
2022-09-11T18:48:02.860Z,98115.00
2022-09-11T18:52:04.315Z,98120.00
2022-09-11T18:56:07.635Z,98122.00
2022-09-11T19:00:11.506Z,98115.00
2022-09-11T19:04:13.907Z,98114.00
2022-09-11T19:08:15.172Z,98128.00
2022-09-11T19:12:16.650Z,98131.00
2022-09-11T19:16:19.625Z,98136.00
2022-09-11T19:20:21.399Z,98132.00
2022-09-11T19:24:24.588Z,98131.00
2022-09-11T19:28:25.716Z,98135.00
2022-09-11T19:32:28.072Z,98127.00
2022-09-11T19:36:32.094Z,98132.00
2022-09-11T19:40:33.212Z,98133.00
2022-09-11T19:44:35.062Z,98133.00
2022-09-11T19:48:37.410Z,98128.00
2022-09-11T19:52:38.404Z,98129.00
2022-09-11T19:56:40.394Z,98132.00
2022-09-11T20:00:41.470Z,98130.00
2022-09-11T20:04:42.620Z,98133.00
2022-09-11T20:08:46.476Z,98128.00
2022-09-11T20:12:48.772Z,98051.00
2022-09-11T20:16:50.025Z,98130.00
2022-09-11T20:20:52.291Z,98137.00
2022-09-11T20:24:53.289Z,98142.00
2022-09-11T20:28:57.802Z,98138.00
2022-09-11T20:33:00.474Z,98135.00
2022-09-11T20:37:01.698Z,98137.00
2022-09-11T20:41:11.807Z,98137.00
2022-09-11T20:45:26.244Z,98128.00
2022-09-11T20:49:29.030Z,98137.00
2022-09-11T20:53:30.104Z,98136.00
2022-09-11T20:57:31.222Z,98138.00
2022-09-11T21:01:33.372Z,98131.00
2022-09-11T21:05:35.770Z,98128.00
2022-09-11T21:09:39.167Z,98128.00
2022-09-11T21:13:41.916Z,98120.00
2022-09-11T21:17:43.037Z,98115.00
2022-09-11T21:21:44.163Z,98117.00
2022-09-11T21:25:46.330Z,98116.00
2022-09-11T21:29:47.899Z,98110.00
2022-09-11T21:33:48.926Z,98109.00
2022-09-11T21:37:49.804Z,98109.00
2022-09-11T21:41:50.695Z,98102.00
2022-09-11T21:45:51.786Z,98094.00
2022-09-11T21:49:52.748Z,98093.00
2022-09-11T21:53:57.871Z,98092.00
2022-09-11T21:57:58.773Z,98102.00
2022-09-11T22:02:00.343Z,98105.00
2022-09-11T22:06:07.522Z,98097.00
2022-09-11T22:10:09.114Z,98101.00
2022-09-11T22:14:10.089Z,98095.00
2022-09-11T22:18:11.517Z,98095.00
2022-09-11T22:22:12.972Z,98092.00
2022-09-11T22:26:19.607Z,98088.00
2022-09-11T22:30:21.326Z,98081.00
2022-09-11T22:34:22.813Z,98079.00
2022-09-11T22:38:23.852Z,98079.00
2022-09-11T22:42:24.752Z,98088.00
2022-09-11T22:46:26.142Z,98081.00
2022-09-11T22:50:27.061Z,98097.00
2022-09-11T22:54:28.261Z,98081.00
2022-09-11T22:58:29.951Z,98085.00
2022-09-11T23:02:30.891Z,98088.00
2022-09-11T23:06:39.690Z,98093.00
2022-09-11T23:10:42.434Z,98086.00
2022-09-11T23:14:43.701Z,98093.00
2022-09-11T23:18:45.243Z,98086.00
2022-09-11T23:22:46.294Z,98064.00
2022-09-11T23:26:47.453Z,98065.00
2022-09-11T23:30:48.410Z,98063.00
2022-09-11T23:34:49.373Z,98065.00
2022-09-11T23:38:50.739Z,98063.00
2022-09-11T23:42:51.608Z,98058.00
2022-09-11T23:46:52.649Z,98057.00
2022-09-11T23:50:53.573Z,98052.00
2022-09-11T23:54:54.455Z,98058.00
2022-09-11T23:58:55.607Z,98053.00
